Time;durP1;ratioP1;P1;durP2;ratioP2;P2;SDS_P1;SDS_P2;PMS_P1;PMS_P2;Temp;Humidity;BMP_temperature;BMP_pressure;BME280_temperature;BME280_humidity;BME280_pressure;Samples;Min_cycle;Max_cycle;Signal;HPM_P1;HPM_P2
2022/02/05 00:03:21;;;;;;;5.43;0.77;;;6.00;99.90;;;;;;5028471;28;20033;-39
2022/02/05 00:05:58;;;;;;;9.27;1.65;;;6.10;99.90;;;;;;5032184;28;20033;-39
2022/02/05 00:38:20;;;;;;;6.72;1.20;;;6.00;99.90;;;;;;5033666;28;20072;-42
2022/02/05 00:43:14;;;;;;;6.78;1.38;;;6.00;99.90;;;;;;5022619;28;20113;-39
2022/02/05 00:45:45;;;;;;;7.70;0.70;;;5.90;99.90;;;;;;5033392;28;20386;-60
2022/02/05 00:48:13;;;;;;;10.07;1.75;;;5.90;99.90;;;;;;5016374;28;20042;-39
2022/02/05 00:50:43;;;;;;;7.88;1.80;;;5.80;99.90;;;;;;5027897;28;20033;-39
2022/02/05 00:55:38;;;;;;;10.85;2.15;;;5.80;99.90;;;;;;5033031;28;20228;-67
2022/02/05 00:58:05;;;;;;;4.47;0.85;;;5.70;99.90;;;;;;5015827;28;20026;-37
2022/02/05 01:00:33;;;;;;;9.88;1.17;;;5.80;99.90;;;;;;5031583;28;20021;-37
2022/02/05 01:02:59;;;;;;;;;;;5.70;99.90;;;;;;5028820;28;20164;-38
2022/02/05 01:05:26;;;;;;;6.03;1.10;;;5.70;99.90;;;;;;5032943;28;19975;-37
2022/02/05 01:07:56;;;;;;;3.35;1.20;;;5.60;99.90;;;;;;5013971;28;20026;-38
2022/02/05 01:10:23;;;;;;;7.18;1.40;;;5.60;99.90;;;;;;5024936;28;20041;-40
2022/02/05 01:12:54;;;;;;;6.80;1.30;;;5.60;99.90;;;;;;5029514;28;20092;-39
2022/02/05 01:15:23;;;;;;;12.18;1.40;;;5.60;99.90;;;;;;5032807;28;20513;-37
2022/02/05 01:17:56;;;;;;;10.77;1.50;;;5.60;99.90;;;;;;5032794;28;20031;-37
2022/02/05 01:23:10;;;;;;;6.13;0.77;;;5.60;99.90;;;;;;5024757;28;20092;-37
2022/02/05 01:25:41;;;;;;;8.77;1.50;;;5.50;99.90;;;;;;5032555;28;20120;-37
2022/02/05 01:28:14;;;;;;;5.03;0.88;;;5.50;99.90;;;;;;5031565;28;20544;-37
2022/02/05 01:30:44;;;;;;;6.07;1.40;;;5.60;99.90;;;;;;5019893;28;20434;-37
2022/02/05 01:33:38;;;;;;;13.88;1.20;;;5.60;99.90;;;;;;5029056;28;20079;-37
2022/02/05 01:52:22;;;;;;;7.60;1.35;;;5.40;99.90;;;;;;5025527;28;20113;-37
2022/02/05 01:58:40;;;;;;;6.55;1.42;;;5.40;99.90;;;;;;5033218;28;20099;-38
2022/02/05 02:06:08;;;;;;;9.15;1.05;;;5.30;99.90;;;;;;5038092;28;20103;-39
2022/02/05 02:11:37;;;;;;;7.47;1.50;;;5.40;99.90;;;;;;5027488;28;20410;-38
2022/02/05 02:19:42;;;;;;;6.88;0.80;;;5.30;99.90;;;;;;5033017;28;20040;-39
2022/02/05 02:32:27;;;;;;;7.65;1.42;;;5.50;99.90;;;;;;5032770;28;20041;-37
2022/02/05 02:34:59;;;;;;;11.77;1.80;;;5.40;99.90;;;;;;5032464;28;20036;-44
2022/02/05 02:38:08;;;;;;;10.07;1.58;;;5.40;99.90;;;;;;5029788;28;20478;-39
2022/02/05 02:43:07;;;;;;;5.47;1.20;;;5.50;99.90;;;;;;5032638;28;20043;-38
2022/02/05 02:45:35;;;;;;;9.50;2.08;;;5.40;99.90;;;;;;5014980;28;20076;-37
2022/02/05 02:48:01;;;;;;;7.72;1.73;;;5.30;99.90;;;;;;5012776;28;20057;-41
2022/02/05 02:58:25;;;;;;;6.15;2.45;;;5.40;99.90;;;;;;5016719;28;20149;-39
2022/02/05 03:00:57;;;;;;;10.48;0.85;;;5.30;99.90;;;;;;5017212;28;20389;-38
2022/02/05 03:03:23;;;;;;;9.93;1.45;;;5.30;99.90;;;;;;5016474;28;20022;-38
2022/02/05 03:05:48;;;;;;;10.77;1.02;;;5.30;99.90;;;;;;5026188;28;20496;-37
2022/02/05 03:08:14;;;;;;;4.10;1.17;;;5.30;99.90;;;;;;5035033;28;20538;-37
2022/02/05 03:10:40;;;;;;;15.65;1.60;;;5.30;99.90;;;;;;5019342;28;20053;-38
2022/02/05 03:13:06;;;;;;;3.20;0.88;;;5.30;99.90;;;;;;5035764;28;20432;-37
2022/02/05 03:15:38;;;;;;;8.68;1.25;;;5.20;99.90;;;;;;5034616;28;20017;-39
2022/02/05 03:18:13;;;;;;;13.02;2.00;;;5.20;99.90;;;;;;5023130;28;20482;-39
2022/02/05 03:20:39;;;;;;;8.15;1.02;;;5.30;99.90;;;;;;5021126;28;20065;-37
2022/02/05 03:23:04;;;;;;;3.80;1.15;;;5.30;99.90;;;;;;5017880;28;20018;-53
2022/02/05 03:25:32;;;;;;;15.25;1.50;;;5.30;99.90;;;;;;5035490;28;20025;-38
2022/02/05 03:27:58;;;;;;;6.93;0.90;;;5.40;99.90;;;;;;5035587;28;20017;-38
2022/02/05 03:30:24;;;;;;;8.60;1.40;;;5.40;99.90;;;;;;5033638;28;20282;-38
2022/02/05 03:32:50;;;;;;;8.77;1.75;;;5.50;99.90;;;;;;5035227;28;20385;-41
2022/02/05 03:35:15;;;;;;;8.05;1.70;;;5.50;99.90;;;;;;5035291;28;20026;-38
2022/02/05 03:37:41;;;;;;;10.02;1.20;;;5.50;99.90;;;;;;5034126;28;20033;-39
2022/02/05 03:40:08;;;;;;;4.78;1.20;;;5.50;99.90;;;;;;5035446;28;20049;-39
2022/02/05 03:42:34;;;;;;;14.43;1.30;;;5.50;99.90;;;;;;5035177;28;20076;-37
2022/02/05 03:45:00;;;;;;;10.95;1.85;;;5.50;99.90;;;;;;5035439;28;20018;-39
2022/02/05 03:47:30;;;;;;;5.57;1.00;;;5.50;99.90;;;;;;5018709;28;20080;-37
2022/02/05 03:49:56;;;;;;;10.93;1.40;;;5.50;99.90;;;;;;5028627;28;20108;-37
2022/02/05 03:52:21;;;;;;;12.93;1.20;;;5.50;99.90;;;;;;5034994;28;20061;-38
2022/02/05 03:54:47;;;;;;;10.05;1.35;;;5.50;99.90;;;;;;5034905;28;20033;-37
2022/02/05 03:57:13;;;;;;;9.40;0.50;;;5.40;99.90;;;;;;5035196;28;20033;-38
2022/02/05 03:59:39;;;;;;;2.80;1.20;;;5.40;99.90;;;;;;5032520;28;20108;-38
2022/02/05 04:02:05;;;;;;;18.35;1.38;;;5.40;99.90;;;;;;5034315;28;20033;-37
2022/02/05 04:04:30;;;;;;;4.50;1.55;;;5.30;99.90;;;;;;5034406;28;20052;-37
2022/02/05 04:06:56;;;;;;;15.93;1.10;;;5.30;99.90;;;;;;5034793;28;20077;-37
2022/02/05 04:09:27;;;;;;;15.70;1.98;;;5.30;99.90;;;;;;5027857;28;20080;-39
2022/02/05 04:15:54;;;;;;;15.68;2.30;;;5.20;99.90;;;;;;5033933;28;20053;-39
2022/02/05 04:17:27;;;;;;;10.43;1.88;;;5.20;99.90;;;;;;5034128;28;20037;-38
2022/02/05 04:19:53;;;;;;;12.40;1.55;;;5.20;99.90;;;;;;5031812;28;20021;-38
2022/02/05 04:22:18;;;;;;;7.47;0.98;;;5.20;99.90;;;;;;5026693;28;20624;-39
2022/02/05 04:24:44;;;;;;;12.35;1.33;;;5.30;99.90;;;;;;5034389;28;20025;-39
2022/02/05 04:27:10;;;;;;;8.70;1.30;;;5.40;99.90;;;;;;5034308;28;20017;-38
2022/02/05 04:29:37;;;;;;;5.68;1.50;;;5.50;99.90;;;;;;5034271;28;20518;-38
2022/02/05 04:32:03;;;;;;;12.55;3.22;;;5.50;99.90;;;;;;5034206;28;20026;-39
2022/02/05 04:34:29;;;;;;;15.52;2.25;;;5.50;99.90;;;;;;5017167;28;20048;-37
2022/02/05 04:36:55;;;;;;;9.77;1.08;;;5.50;99.90;;;;;;5014383;28;20029;-39
2022/02/05 04:39:22;;;;;;;7.70;1.63;;;5.50;99.90;;;;;;5020620;28;20025;-41
2022/02/05 04:41:57;;;;;;;8.68;1.27;;;5.60;99.90;;;;;;5014182;28;20037;-37
2022/02/05 04:44:47;;;;;;;13.90;1.20;;;5.60;99.90;;;;;;5014234;28;20465;-37
2022/02/05 04:47:47;;;;;;;10.05;1.60;;;5.60;99.90;;;;;;5014117;28;20030;-37
2022/02/05 05:03:33;;;;;;;6.47;1.10;;;5.50;99.90;;;;;;5029318;28;20087;-39
2022/02/05 05:09:09;;;;;;;8.25;2.20;;;5.50;99.90;;;;;;5022962;28;20084;-37
2022/02/05 05:11:46;;;;;;;11.82;1.10;;;5.50;99.90;;;;;;5014330;28;20050;-38
2022/02/05 05:21:51;;;;;;;15.63;1.40;;;5.30;99.90;;;;;;5032415;28;20061;-37
2022/02/05 05:24:17;;;;;;;6.88;1.05;;;5.20;99.90;;;;;;5033388;28;20500;-38
2022/02/05 05:26:42;;;;;;;9.63;1.27;;;5.20;99.90;;;;;;5030755;28;20060;-37
2022/02/05 05:29:08;;;;;;;9.25;0.85;;;5.20;99.90;;;;;;5013483;28;20030;-38
2022/02/05 05:31:33;;;;;;;15.45;2.63;;;5.20;99.90;;;;;;5013511;28;20037;-40
2022/02/05 05:33:59;;;;;;;9.02;1.55;;;5.20;99.90;;;;;;5013469;28;20038;-38
2022/02/05 05:36:25;;;;;;;4.05;1.27;;;5.20;99.90;;;;;;5020312;28;20021;-39
2022/02/05 05:38:50;;;;;;;5.25;0.82;;;5.20;99.90;;;;;;5033075;28;20101;-51
2022/02/05 05:41:16;;;;;;;3.65;0.95;;;5.20;99.90;;;;;;5032992;28;20029;-37
2022/02/05 05:43:58;;;;;;;1.38;0.80;;;5.10;99.90;;;;;;5033452;28;20052;-38
2022/02/05 05:46:41;;;;;;;8.00;1.27;;;5.10;99.90;;;;;;5023360;28;20029;-38
2022/02/05 05:49:13;;;;;;;11.48;1.38;;;5.10;99.90;;;;;;5013207;28;20113;-55
2022/02/05 05:51:39;;;;;;;10.15;1.42;;;5.10;99.90;;;;;;5013556;28;20061;-39
2022/02/05 05:54:05;;;;;;;7.85;1.50;;;5.10;99.90;;;;;;5013198;28;20104;-38
2022/02/05 05:56:32;;;;;;;12.23;1.92;;;5.10;99.90;;;;;;5022817;28;20036;-39
2022/02/05 05:58:57;;;;;;;5.78;1.15;;;5.20;99.90;;;;;;5032782;28;20402;-40
2022/02/05 06:01:23;;;;;;;6.60;1.45;;;5.20;99.90;;;;;;5031555;28;20034;-39
2022/02/05 06:03:49;;;;;;;5.47;1.25;;;5.20;99.90;;;;;;5032812;28;20029;-38
2022/02/05 06:06:14;;;;;;;10.75;1.42;;;5.20;99.90;;;;;;5025171;28;20022;-38
2022/02/05 06:08:40;;;;;;;10.13;0.60;;;5.20;99.90;;;;;;5021921;28;20074;-38
2022/02/05 06:11:06;;;;;;;8.73;1.15;;;5.30;99.90;;;;;;5032544;28;20505;-68
2022/02/05 06:13:34;;;;;;;6.63;1.10;;;5.30;99.90;;;;;;5030935;28;20508;-38
2022/02/05 06:16:02;;;;;;;6.40;1.67;;;5.30;99.90;;;;;;5021594;28;20041;-38
2022/02/05 06:18:28;;;;;;;17.83;2.15;;;5.20;99.90;;;;;;5013175;28;20049;-38
2022/02/05 06:20:53;;;;;;;17.33;1.52;;;5.20;99.90;;;;;;5015018;28;20025;-38
2022/02/05 06:23:19;;;;;;;4.57;2.17;;;5.10;99.90;;;;;;5026608;28;20541;-40
2022/02/05 06:25:45;;;;;;;6.78;1.02;;;5.10;99.90;;;;;;5013555;28;20026;-38
2022/02/05 06:28:12;;;;;;;2.20;0.98;;;5.00;99.90;;;;;;5017093;28;20041;-38
2022/02/05 06:30:38;;;;;;;7.57;1.38;;;5.00;99.90;;;;;;5016654;28;20026;-40
2022/02/05 06:33:03;;;;;;;10.57;1.30;;;5.00;99.90;;;;;;5022081;28;20033;-38
2022/02/05 06:35:29;;;;;;;12.07;1.65;;;4.90;99.90;;;;;;5036479;28;20029;-59
2022/02/05 06:37:55;;;;;;;5.00;1.55;;;4.80;99.90;;;;;;5036465;28;20057;-38
2022/02/05 06:40:20;;;;;;;9.05;1.40;;;4.80;99.90;;;;;;5034774;28;20124;-39
2022/02/05 06:42:47;;;;;;;7.50;1.02;;;4.70;99.90;;;;;;5035583;28;20034;-39
2022/02/05 06:45:16;;;;;;;14.50;1.30;;;4.70;99.90;;;;;;5036224;28;20026;-37
2022/02/05 06:47:42;;;;;;;3.80;1.08;;;4.70;99.90;;;;;;5021995;28;20046;-39
2022/02/05 06:50:09;;;;;;;9.07;1.42;;;4.70;99.90;;;;;;5016699;28;20030;-38
2022/02/05 06:52:35;;;;;;;11.60;1.15;;;4.80;99.90;;;;;;5020462;28;20033;-38
2022/02/05 06:55:02;;;;;;;5.43;1.83;;;4.70;99.90;;;;;;5036383;28;20029;-38
2022/02/05 06:57:28;;;;;;;17.02;1.35;;;4.70;99.90;;;;;;5035327;28;20039;-39
2022/02/05 06:59:53;;;;;;;6.22;1.75;;;4.70;99.90;;;;;;5035975;28;20025;-39
2022/02/05 07:02:19;;;;;;;11.45;1.23;;;4.60;99.90;;;;;;5035942;28;20029;-38
2022/02/05 07:04:45;;;;;;;8.57;1.10;;;4.60;99.90;;;;;;5027389;28;20501;-37
2022/02/05 07:07:11;;;;;;;11.05;1.00;;;4.60;99.90;;;;;;5027996;28;20022;-38
2022/02/05 07:09:38;;;;;;;9.70;1.10;;;4.50;99.90;;;;;;5035606;28;20028;-72
2022/02/05 07:12:05;;;;;;;2.45;0.80;;;4.50;99.90;;;;;;5033556;28;20033;-39
2022/02/05 07:14:39;;;;;;;5.47;1.25;;;4.50;99.90;;;;;;5016090;28;20652;-39
2022/02/05 07:17:14;;;;;;;16.00;2.35;;;4.50;99.90;;;;;;5015979;28;20391;-39
2022/02/05 07:22:08;;;;;;;3.75;1.20;;;4.50;99.90;;;;;;5018320;28;20112;-39
2022/02/05 07:24:55;;;;;;;12.43;1.50;;;4.50;99.90;;;;;;5035880;28;20060;-38
2022/02/05 07:30:06;;;;;;;14.02;2.22;;;4.30;99.90;;;;;;5035667;28;20048;-44
2022/02/05 07:32:33;;;;;;;11.07;1.25;;;4.30;99.90;;;;;;5033781;28;20052;-41
2022/02/05 07:34:58;;;;;;;10.80;1.92;;;4.20;99.90;;;;;;5035388;28;20086;-38
2022/02/05 07:37:24;;;;;;;15.95;1.30;;;4.30;99.90;;;;;;5034275;28;20105;-39
2022/02/05 07:39:50;;;;;;;5.25;0.95;;;4.40;99.90;;;;;;5035195;28;20029;-62
2022/02/05 07:42:17;;;;;;;2.47;1.27;;;4.50;99.90;;;;;;5033008;28;20124;-39
2022/02/05 07:44:43;;;;;;;8.73;1.23;;;4.60;99.90;;;;;;5015651;28;20030;-39
2022/02/05 07:47:09;;;;;;;3.13;1.10;;;4.70;99.90;;;;;;5015396;28;20384;-39
2022/02/05 07:49:39;;;;;;;3.90;1.48;;;4.70;99.90;;;;;;5015250;28;20529;-37
2022/02/05 07:52:05;;;;;;;7.60;1.15;;;4.70;99.90;;;;;;5015915;28;20036;-41
2022/02/05 07:54:31;;;;;;;7.65;1.13;;;4.70;99.90;;;;;;5034805;28;20068;-39
2022/02/05 07:56:57;;;;;;;10.45;1.52;;;4.80;99.90;;;;;;5035012;28;20080;-37
2022/02/05 07:59:22;;;;;;;5.95;1.15;;;4.80;99.90;;;;;;5033197;28;20457;-39
2022/02/05 08:01:48;;;;;;;3.92;1.50;;;4.90;99.90;;;;;;5034781;28;20029;-38
2022/02/05 08:04:14;;;;;;;9.20;1.38;;;4.90;99.90;;;;;;5034470;28;20075;-37
2022/02/05 08:06:40;;;;;;;8.55;1.42;;;5.00;99.90;;;;;;5015035;28;20451;-39
2022/02/05 08:09:20;;;;;;;11.63;2.42;;;5.10;99.90;;;;;;5014852;28;20108;-38
2022/02/05 08:11:58;;;;;;;5.57;0.73;;;5.10;99.90;;;;;;5014790;28;20124;-37
2022/02/05 08:14:26;;;;;;;;;;;5.10;99.90;;;;;;5030100;28;20025;-37
2022/02/05 08:17:05;;;;;;;5.13;0.88;;;5.10;99.90;;;;;;5034916;28;19923;-39
2022/02/05 08:19:30;;;;;;;11.68;1.67;;;5.10;99.90;;;;;;5022317;28;20092;-38
2022/02/05 08:21:56;;;;;;;8.98;1.52;;;5.10;99.90;;;;;;5014670;28;20394;-38
2022/02/05 08:24:22;;;;;;;4.72;1.27;;;5.10;99.90;;;;;;5028903;28;20026;-39
2022/02/05 08:26:47;;;;;;;11.98;1.73;;;5.10;99.90;;;;;;5034652;28;20013;-38
2022/02/05 08:29:15;;;;;;;4.78;1.83;;;5.20;99.90;;;;;;5034130;28;20117;-38
2022/02/05 08:31:42;;;;;;;9.52;1.50;;;5.30;99.90;;;;;;5034471;28;20034;-40
2022/02/05 08:34:07;;;;;;;11.05;1.15;;;5.30;99.90;;;;;;5034485;28;20029;-39
2022/02/05 08:36:43;;;;;;;6.95;1.23;;;5.40;99.90;;;;;;5017684;28;20032;-37
2022/02/05 08:39:09;;;;;;;13.07;1.35;;;5.50;99.90;;;;;;5014427;28;20123;-41
2022/02/05 08:41:35;;;;;;;7.32;2.13;;;5.50;99.90;;;;;;5014243;28;20030;-61
2022/02/05 08:44:01;;;;;;;6.75;1.88;;;5.60;99.90;;;;;;5014463;28;20026;-39
2022/02/05 08:46:26;;;;;;;9.40;2.25;;;5.60;99.90;;;;;;5015092;28;20083;-37
2022/02/05 08:48:53;;;;;;;9.80;1.42;;;5.60;99.90;;;;;;5014127;28;20076;-75
2022/02/05 08:51:19;;;;;;;8.52;1.35;;;5.70;99.90;;;;;;5031182;28;20026;-39
2022/02/05 08:53:44;;;;;;;6.05;1.30;;;5.60;99.90;;;;;;5034255;28;20454;-38
2022/02/05 08:56:10;;;;;;;8.38;1.33;;;5.60;99.90;;;;;;5033915;28;20036;-39
2022/02/05 08:58:36;;;;;;;8.60;1.17;;;5.70;99.90;;;;;;5028121;28;20030;-39
2022/02/05 09:01:16;;;;;;;7.45;1.70;;;5.80;99.90;;;;;;5014194;28;20449;-39
2022/02/05 09:06:22;;;;;;;9.93;1.33;;;6.10;99.90;;;;;;5018968;28;20029;-40
2022/02/05 09:08:52;;;;;;;6.45;1.50;;;6.10;99.90;;;;;;5033779;28;20025;-38
2022/02/05 09:11:33;;;;;;;8.45;1.67;;;6.10;99.90;;;;;;5033104;28;20045;-38
2022/02/05 09:16:55;;;;;;;12.20;1.52;;;6.10;99.90;;;;;;5014694;28;20044;-36
2022/02/05 09:19:21;;;;;;;7.45;1.85;;;6.10;99.90;;;;;;5013764;28;20041;-37
2022/02/05 09:21:47;;;;;;;5.72;1.75;;;6.10;99.90;;;;;;5013591;28;20037;-41
2022/02/05 09:24:13;;;;;;;8.40;1.40;;;6.10;99.90;;;;;;5015828;28;20025;-41
2022/02/05 09:26:43;;;;;;;5.50;1.15;;;6.20;99.90;;;;;;5033065;28;20017;-39
2022/02/05 09:29:18;;;;;;;12.63;1.95;;;6.40;99.90;;;;;;5033293;28;20052;-38
2022/02/05 09:31:44;;;;;;;8.75;1.52;;;6.50;99.90;;;;;;5032387;28;20021;-40
2022/02/05 09:34:10;;;;;;;3.22;0.95;;;6.60;99.90;;;;;;5013280;28;20040;-40
2022/02/05 09:36:39;;;;;;;13.05;1.33;;;6.80;99.90;;;;;;5026759;28;20513;-38
2022/02/05 09:39:06;;;;;;;9.63;1.50;;;6.90;99.90;;;;;;5012076;28;20116;-41
2022/02/05 09:41:32;;;;;;;10.40;1.40;;;6.90;99.90;;;;;;5013254;28;20036;-38
2022/02/05 09:43:58;;;;;;;14.30;1.58;;;7.00;99.90;;;;;;5014354;28;20390;-39
2022/02/05 09:46:23;;;;;;;9.82;1.65;;;7.00;99.90;;;;;;5032905;28;20485;-39
2022/02/05 09:48:51;;;;;;;7.90;2.05;;;7.00;99.90;;;;;;5032317;28;20029;-39
2022/02/05 09:51:19;;;;;;;5.05;1.50;;;7.10;99.90;;;;;;5032775;28;20033;-37
2022/02/05 09:53:46;;;;;;;;;;;7.20;99.90;;;;;;5033322;28;20032;-41
2022/02/05 09:56:11;;;;;;;10.00;2.78;;;7.20;99.90;;;;;;5030904;28;19913;-49
2022/02/05 09:58:37;;;;;;;6.15;0.82;;;7.30;99.90;;;;;;5032783;28;20040;-41
2022/02/05 10:01:29;;;;;;;10.93;1.05;;;7.40;99.90;;;;;;5031164;28;20113;-38
2022/02/05 10:03:56;;;;;;;4.00;0.93;;;7.50;99.90;;;;;;5031734;28;20445;-59
2022/02/05 10:06:25;;;;;;;5.28;1.33;;;7.50;99.90;;;;;;5026261;28;20054;-41
2022/02/05 10:09:08;;;;;;;8.43;1.30;;;7.50;99.90;;;;;;5027511;28;20036;-38
2022/02/05 10:11:50;;;;;;;12.05;1.60;;;7.60;99.90;;;;;;5032357;28;20041;-38
2022/02/05 10:14:22;;;;;;;15.10;1.95;;;7.60;99.90;;;;;;5032566;28;20045;-58
2022/02/05 10:16:53;;;;;;;9.85;1.13;;;7.60;99.90;;;;;;5022603;28;20539;-64
2022/02/05 10:19:21;;;;;;;3.67;0.98;;;7.50;99.90;;;;;;5013610;28;20127;-40
2022/02/05 10:22:03;;;;;;;8.77;2.30;;;7.50;99.90;;;;;;5032403;28;20112;-39
2022/02/05 10:24:29;;;;;;;11.45;2.00;;;7.40;99.90;;;;;;5016805;28;20057;-40
2022/02/05 10:26:56;;;;;;;9.70;1.02;;;7.50;99.90;;;;;;5013152;28;20099;-38
2022/02/05 10:29:21;;;;;;;10.88;1.60;;;7.50;99.90;;;;;;5012659;28;20057;-38
2022/02/05 10:31:53;;;;;;;10.80;1.15;;;7.40;99.90;;;;;;5013009;28;20099;-40
2022/02/05 10:34:19;;;;;;;11.73;1.60;;;7.40;99.90;;;;;;5027165;28;20036;-38
2022/02/05 10:36:46;;;;;;;11.48;1.73;;;7.40;99.90;;;;;;5031454;28;20033;-40
2022/02/05 10:44:24;;;;;;;9.45;2.53;;;7.30;99.90;;;;;;5027423;28;20512;-39
2022/02/05 10:46:54;;;;;;;7.80;1.70;;;7.30;99.90;;;;;;5029719;28;20021;-38
2022/02/05 10:49:48;;;;;;;6.07;1.40;;;7.40;99.90;;;;;;5030268;28;20026;-40
2022/02/05 10:52:25;;;;;;;8.82;1.45;;;7.50;99.90;;;;;;5021621;28;20374;-36
2022/02/05 10:55:06;;;;;;;6.63;1.25;;;7.60;99.90;;;;;;5019895;28;20026;-39
2022/02/05 10:57:51;;;;;;;8.02;1.50;;;7.70;99.90;;;;;;5012599;28;20025;-39
2022/02/05 11:05:43;;;;;;;13.30;1.45;;;7.90;99.90;;;;;;5021891;28;20437;-39
2022/02/05 11:08:10;;;;;;;4.75;1.10;;;7.90;99.90;;;;;;5032063;28;20401;-40
2022/02/05 11:10:57;;;;;;;10.65;1.08;;;7.90;99.90;;;;;;5023281;28;20021;-40
2022/02/05 11:16:02;;;;;;;9.75;1.00;;;8.10;99.90;;;;;;5030957;28;20060;-39
2022/02/05 11:20:57;;;;;;;7.03;1.15;;;8.20;99.90;;;;;;5016149;28;20041;-41
2022/02/05 11:23:27;;;;;;;7.40;1.77;;;8.20;99.90;;;;;;5015876;28;20133;-39
2022/02/05 11:25:54;;;;;;;6.00;1.17;;;8.20;99.90;;;;;;5017399;28;20486;-39
2022/02/05 11:28:42;;;;;;;13.10;1.40;;;8.10;99.90;;;;;;5015653;28;20025;-39
2022/02/05 11:31:14;;;;;;;8.20;1.17;;;8.10;99.90;;;;;;5033567;28;20587;-38
2022/02/05 11:33:40;;;;;;;5.13;0.88;;;8.00;99.90;;;;;;5033297;28;20057;-41
2022/02/05 11:38:43;;;;;;;6.05;1.20;;;8.10;99.90;;;;;;5021136;28;20057;-42
2022/02/05 11:41:29;;;;;;;10.43;1.65;;;8.10;99.90;;;;;;5024661;28;20170;-39
2022/02/05 11:44:17;;;;;;;14.45;1.73;;;8.10;99.90;;;;;;5045737;28;20382;-39
2022/02/05 11:47:11;;;;;;;11.23;1.83;;;8.30;99.90;;;;;;5031021;28;20506;-39
2022/02/05 11:49:52;;;;;;;12.65;1.90;;;8.40;99.90;;;;;;5016022;28;20026;-41
2022/02/05 11:52:36;;;;;;;9.20;1.38;;;8.60;99.90;;;;;;5031283;28;20040;-38
2022/02/05 11:55:04;;;;;;;12.68;1.88;;;8.70;99.90;;;;;;5017999;28;20080;-38
2022/02/05 11:57:45;;;;;;;12.35;1.55;;;8.70;99.90;;;;;;5015571;28;20068;-37
2022/02/05 12:00:20;;;;;;;10.85;1.48;;;8.60;99.90;;;;;;5034840;28;20389;-38
2022/02/05 12:05:24;;;;;;;17.88;2.40;;;8.70;99.90;;;;;;5020270;28;20026;-41
2022/02/05 12:08:05;;;;;;;10.93;1.10;;;8.90;99.90;;;;;;5028655;28;20072;-38
2022/02/05 12:10:33;;;;;;;6.32;1.42;;;9.00;99.90;;;;;;5014597;28;20096;-39
2022/02/05 12:13:37;;;;;;;6.63;1.45;;;9.10;99.90;;;;;;5028684;28;20069;-38
2022/02/05 12:16:05;;;;;;;6.55;0.85;;;9.30;99.90;;;;;;5012270;28;20042;-40
2022/02/05 12:18:32;;;;;;;8.35;1.77;;;9.40;99.90;;;;;;5033754;28;20049;-40
2022/02/05 12:21:07;;;;;;;5.05;1.50;;;9.30;99.90;;;;;;5033266;28;20470;-38
2022/02/05 12:26:17;;;;;;;8.48;1.25;;;9.10;99.90;;;;;;5030323;28;20036;-41
2022/02/05 12:28:50;;;;;;;11.50;1.23;;;9.10;99.90;;;;;;5030340;28;20017;-42
2022/02/05 12:31:20;;;;;;;2.65;0.98;;;9.00;99.90;;;;;;5030766;28;20021;-39
2022/02/05 12:33:55;;;;;;;16.45;1.65;;;8.90;99.90;;;;;;5023623;28;20367;-37
2022/02/05 12:36:32;;;;;;;2.25;1.48;;;9.00;99.90;;;;;;5017780;28;20117;-42
2022/02/05 12:39:00;;;;;;;7.88;0.88;;;9.10;99.90;;;;;;5026150;28;20029;-40
2022/02/05 12:41:29;;;;;;;10.05;1.25;;;9.10;99.90;;;;;;5023161;28;20032;-39
2022/02/05 12:44:00;;;;;;;9.77;1.63;;;9.30;99.90;;;;;;5023789;28;20033;-37
2022/02/05 12:46:35;;;;;;;14.18;2.45;;;9.50;99.90;;;;;;5030038;28;20040;-42
2022/02/05 12:49:06;;;;;;;6.25;1.15;;;9.50;99.90;;;;;;5020894;28;20164;-37
2022/02/05 12:51:32;;;;;;;14.80;2.30;;;9.50;99.90;;;;;;5021651;28;20037;-40
2022/02/05 12:54:10;;;;;;;11.65;1.50;;;9.40;99.90;;;;;;5022361;28;20037;-35
2022/02/05 12:56:38;;;;;;;6.93;1.75;;;9.30;99.90;;;;;;5026145;28;20037;-41
2022/02/05 12:59:10;;;;;;;5.75;1.27;;;9.30;99.90;;;;;;5023918;28;20687;-41
2022/02/05 13:01:39;;;;;;;8.10;1.80;;;9.40;99.90;;;;;;5024927;28;20083;-57
2022/02/05 13:04:16;;;;;;;11.18;1.30;;;9.40;99.90;;;;;;5026400;28;20021;-39
2022/02/05 13:06:43;;;;;;;5.65;0.82;;;9.40;99.90;;;;;;5021789;28;20131;-43
2022/02/05 13:09:19;;;;;;;4.55;1.40;;;9.30;99.90;;;;;;5024942;28;20022;-42
2022/02/05 13:11:45;;;;;;;7.20;1.50;;;9.10;99.90;;;;;;5021606;28;20436;-38
2022/02/05 13:14:10;;;;;;;5.15;0.82;;;9.10;99.90;;;;;;5020293;28;20028;-38
2022/02/05 13:16:38;;;;;;;9.82;1.45;;;9.00;99.90;;;;;;5028981;28;20033;-44
2022/02/05 13:19:21;;;;;;;6.22;1.10;;;8.90;99.90;;;;;;5024127;28;20098;-39
2022/02/05 13:25:04;;;;;;;2.33;1.10;;;9.10;99.90;;;;;;5028440;28;20099;-42
2022/02/05 13:36:10;;;;;;;6.68;1.33;;;9.30;99.90;;;;;;5028536;28;20193;-38
2022/02/05 13:38:57;;;;;;;3.88;1.45;;;9.40;99.90;;;;;;5030013;28;20029;-38
2022/02/05 13:41:34;;;;;;;6.38;1.23;;;9.50;99.90;;;;;;5017720;28;20026;-40
2022/02/05 13:44:00;;;;;;;10.77;1.73;;;9.50;99.90;;;;;;5017605;28;20021;-40
2022/02/05 13:46:26;;;;;;;6.85;1.63;;;9.40;99.90;;;;;;5033135;28;20352;-41
2022/02/05 13:48:52;;;;;;;8.98;1.38;;;9.40;99.90;;;;;;5013947;28;20072;-38
2022/02/05 13:51:19;;;;;;;10.85;1.48;;;9.30;99.90;;;;;;5013016;28;20411;-39
2022/02/05 13:53:57;;;;;;;7.95;1.15;;;9.20;99.90;;;;;;5013002;28;20037;-39
2022/02/05 13:56:23;;;;;;;5.97;1.52;;;9.00;99.90;;;;;;5018730;28;20026;-39
2022/02/05 13:58:49;;;;;;;13.90;1.13;;;9.00;99.90;;;;;;5014014;28;20034;-39
2022/02/05 14:01:32;;;;;;;7.25;1.08;;;9.00;99.90;;;;;;5013430;28;20025;-44
2022/02/05 14:04:19;;;;;;;5.47;1.13;;;8.90;99.90;;;;;;5022308;28;20043;-41
2022/02/05 14:06:59;;;;;;;13.38;1.40;;;8.80;99.90;;;;;;5019716;28;20044;-45
2022/02/05 14:09:32;;;;;;;6.85;1.35;;;8.80;99.90;;;;;;5022209;28;20029;-41
2022/02/05 14:12:14;;;;;;;5.25;1.00;;;8.80;99.90;;;;;;5021885;28;20552;-41
2022/02/05 14:14:40;;;;;;;6.95;0.85;;;8.80;99.90;;;;;;5022877;28;20486;-39
2022/02/05 14:17:18;;;;;;;10.80;1.10;;;8.80;99.90;;;;;;5021642;28;20037;-39
2022/02/05 14:19:47;;;;;;;7.05;2.15;;;8.90;99.90;;;;;;5021796;28;20075;-39
2022/02/05 14:22:29;;;;;;;7.40;1.00;;;9.00;99.90;;;;;;5022296;28;20025;-43
2022/02/05 14:25:16;;;;;;;7.68;1.42;;;9.20;99.90;;;;;;5021205;28;20022;-40
2022/02/05 14:28:16;;;;;;;13.13;1.90;;;9.20;99.90;;;;;;5020234;28;20029;-40
2022/02/05 14:31:01;;;;;;;12.57;2.00;;;9.10;99.90;;;;;;5024481;28;20387;-44
2022/02/05 14:33:35;;;;;;;8.80;1.42;;;9.30;99.90;;;;;;5029184;28;20032;-40
2022/02/05 14:36:17;;;;;;;8.15;1.00;;;9.20;99.90;;;;;;5027409;28;20018;-42
2022/02/05 14:41:27;;;;;;;11.55;2.00;;;9.20;99.90;;;;;;5031578;28;20504;-40
2022/02/05 14:43:52;;;;;;;8.13;1.23;;;9.10;99.90;;;;;;5027140;28;20022;-41
2022/02/05 14:46:18;;;;;;;5.88;1.13;;;9.00;99.90;;;;;;5029166;28;20025;-41
2022/02/05 14:48:43;;;;;;;10.68;1.25;;;9.00;99.90;;;;;;5022182;28;20394;-41
2022/02/05 14:51:09;;;;;;;13.75;2.28;;;9.00;99.90;;;;;;5027173;28;20100;-38
2022/02/05 14:53:34;;;;;;;4.50;1.45;;;9.00;99.90;;;;;;5035846;28;20029;-41
2022/02/05 14:56:00;;;;;;;12.95;1.13;;;9.10;99.90;;;;;;5035312;28;20033;-39
2022/02/05 14:58:26;;;;;;;7.40;1.58;;;9.00;99.90;;;;;;5036211;28;20033;-40
2022/02/05 15:00:51;;;;;;;13.10;1.98;;;9.10;99.90;;;;;;5035986;28;20026;-41
2022/02/05 15:03:19;;;;;;;5.50;1.00;;;9.10;99.90;;;;;;5036135;28;20025;-40
2022/02/05 15:05:47;;;;;;;;;;;9.10;99.90;;;;;;5026564;28;20034;-39
2022/02/05 15:08:12;;;;;;;11.85;1.40;;;9.10;99.90;;;;;;5016272;28;19909;-43
2022/02/05 15:10:38;;;;;;;8.15;1.10;;;9.00;99.90;;;;;;5032471;28;20033;-39
2022/02/05 15:13:05;;;;;;;19.75;2.45;;;8.90;99.90;;;;;;5035090;28;20036;-40
2022/02/05 15:15:31;;;;;;;9.25;1.50;;;8.90;99.90;;;;;;5035919;28;20025;-47
2022/02/05 15:17:57;;;;;;;4.68;0.77;;;8.80;99.90;;;;;;5032518;28;20033;-40
2022/02/05 15:20:23;;;;;;;7.00;1.20;;;8.80;99.90;;;;;;5020407;28;20040;-42
2022/02/05 15:22:50;;;;;;;11.30;2.47;;;8.80;99.90;;;;;;5019965;28;20041;-40
2022/02/05 15:25:16;;;;;;;6.60;0.90;;;8.80;99.90;;;;;;5035319;28;20053;-41
2022/02/05 15:27:42;;;;;;;13.15;1.30;;;8.80;99.90;;;;;;5025903;28;20393;-41
2022/02/05 15:30:10;;;;;;;10.40;1.63;;;8.70;99.90;;;;;;5025063;28;20017;-39
2022/02/05 15:32:36;;;;;;;10.68;1.08;;;8.60;99.90;;;;;;5024132;28;20056;-39
2022/02/05 15:35:01;;;;;;;7.15;1.52;;;8.70;99.90;;;;;;5025665;28;20061;-39
2022/02/05 15:37:27;;;;;;;12.07;0.98;;;8.60;99.90;;;;;;5026653;28;20029;-43
2022/02/05 15:45:13;;;;;;;11.48;1.70;;;8.70;99.90;;;;;;5028418;28;20037;-40
2022/02/05 15:47:40;;;;;;;9.00;1.42;;;8.60;99.90;;;;;;5025720;28;20029;-42
2022/02/05 15:50:08;;;;;;;8.10;1.60;;;8.60;99.90;;;;;;5026125;28;20091;-39
2022/02/05 15:52:35;;;;;;;9.00;1.88;;;8.60;99.90;;;;;;5025704;28;20496;-41
2022/02/05 15:55:01;;;;;;;10.55;0.77;;;8.50;99.90;;;;;;5025008;28;20104;-38
2022/02/05 16:00:03;;;;;;;6.88;1.38;;;8.50;99.90;;;;;;5028498;28;20034;-45
2022/02/05 16:02:28;;;;;;;8.95;1.58;;;8.50;99.90;;;;;;5024230;28;20049;-43
2022/02/05 16:04:54;;;;;;;6.13;1.20;;;8.50;99.90;;;;;;5026185;28;20091;-42
2022/02/05 16:07:19;;;;;;;11.45;1.23;;;8.50;99.90;;;;;;5025982;28;20098;-39